sensor_id;sensor_type;location;lat;lon;timestamp;pressure;altitude;pressure_sealevel;temperature;humidity
78845;BME280;68195;50.854;2.860;2023-07-30T00:02:23;100909.06;;;15.32;100.00
78845;BME280;68195;50.854;2.860;2023-07-30T00:04:48;100937.16;;;15.44;100.00
78845;BME280;68195;50.854;2.860;2023-07-30T00:07:14;100892.91;;;15.11;100.00
78845;BME280;68195;50.854;2.860;2023-07-30T00:09:39;100945.38;;;15.52;100.00
78845;BME280;68195;50.854;2.860;2023-07-30T00:12:06;100876.16;;;14.99;100.00
78845;BME280;68195;50.854;2.860;2023-07-30T00:14:35;100885.41;;;15.05;100.00
78845;BME280;68195;50.854;2.860;2023-07-30T00:17:01;100998.50;;;15.72;100.00
78845;BME280;68195;50.854;2.860;2023-07-30T00:19:29;101002.47;;;15.65;100.00
78845;BME280;68195;50.854;2.860;2023-07-30T00:21:54;100899.41;;;15.05;100.00
78845;BME280;68195;50.854;2.860;2023-07-30T00:24:19;100940.28;;;15.24;100.00
78845;BME280;68195;50.854;2.860;2023-07-30T00:26:47;100925.56;;;15.21;100.00
78845;BME280;68195;50.854;2.860;2023-07-30T00:29:15;100904.22;;;14.98;100.00
78845;BME280;68195;50.854;2.860;2023-07-30T00:31:46;100952.66;;;15.36;100.00
78845;BME280;68195;50.854;2.860;2023-07-30T00:34:11;100899.63;;;15.02;100.00
78845;BME280;68195;50.854;2.860;2023-07-30T00:36:43;101007.09;;;15.61;100.00
78845;BME280;68195;50.854;2.860;2023-07-30T00:39:09;100964.94;;;15.35;100.00
78845;BME280;68195;50.854;2.860;2023-07-30T00:41:36;101003.19;;;15.54;100.00
78845;BME280;68195;50.854;2.860;2023-07-30T00:44:04;100985.88;;;15.37;100.00
78845;BME280;68195;50.854;2.860;2023-07-30T00:46:30;100939.59;;;15.07;100.00
78845;BME280;68195;50.854;2.860;2023-07-30T00:48:58;100957.22;;;15.20;100.00
78845;BME280;68195;50.854;2.860;2023-07-30T00:51:24;100933.28;;;14.97;100.00
78845;BME280;68195;50.854;2.860;2023-07-30T00:53:50;100918.09;;;14.88;100.00
78845;BME280;68195;50.854;2.860;2023-07-30T00:56:15;100943.06;;;14.95;100.00
78845;BME280;68195;50.854;2.860;2023-07-30T00:58:43;100953.50;;;15.09;100.00
78845;BME280;68195;50.854;2.860;2023-07-30T01:01:14;101002.88;;;15.46;100.00
78845;BME280;68195;50.854;2.860;2023-07-30T01:03:42;100982.38;;;15.24;100.00
78845;BME280;68195;50.854;2.860;2023-07-30T01:06:07;100977.34;;;15.21;100.00
78845;BME280;68195;50.854;2.860;2023-07-30T01:08:33;101003.03;;;15.30;100.00
78845;BME280;68195;50.854;2.860;2023-07-30T01:11:01;100997.78;;;15.30;100.00
78845;BME280;68195;50.854;2.860;2023-07-30T01:13:28;101003.03;;;15.30;100.00
78845;BME280;68195;50.854;2.860;2023-07-30T01:15:54;100974.75;;;15.06;100.00
78845;BME280;68195;50.854;2.860;2023-07-30T01:18:19;100966.97;;;15.05;100.00
78845;BME280;68195;50.854;2.860;2023-07-30T01:20:45;100954.94;;;15.01;100.00
78845;BME280;68195;50.854;2.860;2023-07-30T01:23:13;100951.56;;;14.98;100.00
78845;BME280;68195;50.854;2.860;2023-07-30T01:25:42;100989.31;;;15.12;100.00
78845;BME280;68195;50.854;2.860;2023-07-30T01:28:12;101019.31;;;15.22;100.00
78845;BME280;68195;50.854;2.860;2023-07-30T01:30:47;100928.97;;;14.69;100.00
78845;BME280;68195;50.854;2.860;2023-07-30T01:33:13;100954.91;;;14.88;100.00
78845;BME280;68195;50.854;2.860;2023-07-30T01:35:41;101027.66;;;15.29;100.00
78845;BME280;68195;50.854;2.860;2023-07-30T01:38:10;101021.31;;;15.18;100.00
78845;BME280;68195;50.854;2.860;2023-07-30T01:40:41;101029.53;;;15.27;100.00
78845;BME280;68195;50.854;2.860;2023-07-30T01:43:09;100963.59;;;14.75;100.00
78845;BME280;68195;50.854;2.860;2023-07-30T01:45:35;100965.34;;;14.75;100.00
78845;BME280;68195;50.854;2.860;2023-07-30T01:48:00;101052.38;;;15.26;100.00
78845;BME280;68195;50.854;2.860;2023-07-30T01:50:26;100995.34;;;15.00;100.00
78845;BME280;68195;50.854;2.860;2023-07-30T01:52:51;101011.44;;;14.95;100.00
78845;BME280;68195;50.854;2.860;2023-07-30T01:55:17;100972.28;;;14.90;100.00
78845;BME280;68195;50.854;2.860;2023-07-30T01:57:42;100993.19;;;14.92;100.00
78845;BME280;68195;50.854;2.860;2023-07-30T02:00:08;100965.19;;;14.78;100.00
78845;BME280;68195;50.854;2.860;2023-07-30T02:02:33;101031.84;;;15.18;100.00
78845;BME280;68195;50.854;2.860;2023-07-30T02:05:00;100904.19;;;14.44;100.00
78845;BME280;68195;50.854;2.860;2023-07-30T02:07:28;100985.22;;;14.93;100.00
78845;BME280;68195;50.854;2.860;2023-07-30T02:09:53;100891.94;;;14.30;100.00
78845;BME280;68195;50.854;2.860;2023-07-30T02:12:21;100984.25;;;14.94;100.00
78845;BME280;68195;50.854;2.860;2023-07-30T02:14:49;100974.19;;;14.74;100.00
78845;BME280;68195;50.854;2.860;2023-07-30T02:17:14;100897.44;;;14.40;100.00
78845;BME280;68195;50.854;2.860;2023-07-30T02:19:45;100958.63;;;14.71;100.00
78845;BME280;68195;50.854;2.860;2023-07-30T02:22:11;100937.25;;;14.63;100.00
78845;BME280;68195;50.854;2.860;2023-07-30T02:24:36;100987.84;;;14.93;100.00
78845;BME280;68195;50.854;2.860;2023-07-30T02:27:01;100945.97;;;14.63;100.00
78845;BME280;68195;50.854;2.860;2023-07-30T02:29:27;100937.13;;;14.64;100.00
78845;BME280;68195;50.854;2.860;2023-07-30T02:31:53;100996.47;;;15.10;100.00
78845;BME280;68195;50.854;2.860;2023-07-30T02:34:18;100975.00;;;14.89;100.00
78845;BME280;68195;50.854;2.860;2023-07-30T02:36:44;100987.47;;;15.00;100.00
78845;BME280;68195;50.854;2.860;2023-07-30T02:39:09;101013.53;;;15.17;100.00
78845;BME280;68195;50.854;2.860;2023-07-30T02:41:34;100966.06;;;14.91;100.00
78845;BME280;68195;50.854;2.860;2023-07-30T02:44:00;100937.31;;;14.75;100.00
78845;BME280;68195;50.854;2.860;2023-07-30T02:46:25;100965.97;;;14.93;100.00
78845;BME280;68195;50.854;2.860;2023-07-30T02:48:50;101018.47;;;15.22;100.00
78845;BME280;68195;50.854;2.860;2023-07-30T02:51:18;100933.19;;;14.71;100.00
78845;BME280;68195;50.854;2.860;2023-07-30T02:53:46;100986.63;;;14.99;100.00
78845;BME280;68195;50.854;2.860;2023-07-30T02:56:11;100970.28;;;14.94;100.00
78845;BME280;68195;50.854;2.860;2023-07-30T02:58:37;100922.53;;;14.60;100.00
78845;BME280;68195;50.854;2.860;2023-07-30T03:01:07;100944.31;;;14.75;100.00
78845;BME280;68195;50.854;2.860;2023-07-30T03:03:32;100974.72;;;14.93;100.00
78845;BME280;68195;50.854;2.860;2023-07-30T03:06:02;101026.59;;;15.18;100.00
78845;BME280;68195;50.854;2.860;2023-07-30T03:08:30;100985.97;;;14.95;100.00
78845;BME280;68195;50.854;2.860;2023-07-30T03:10:59;100942.34;;;14.79;100.00
78845;BME280;68195;50.854;2.860;2023-07-30T03:13:25;100994.09;;;15.05;100.00
78845;BME280;68195;50.854;2.860;2023-07-30T03:15:53;100962.63;;;14.76;100.00
78845;BME280;68195;50.854;2.860;2023-07-30T03:18:18;101029.84;;;15.22;100.00
78845;BME280;68195;50.854;2.860;2023-07-30T03:20:44;100975.41;;;14.83;100.00
78845;BME280;68195;50.854;2.860;2023-07-30T03:23:09;101037.38;;;15.14;100.00
78845;BME280;68195;50.854;2.860;2023-07-30T03:25:37;100993.94;;;14.94;100.00
78845;BME280;68195;50.854;2.860;2023-07-30T03:28:02;100960.09;;;14.75;100.00
78845;BME280;68195;50.854;2.860;2023-07-30T03:30:30;100970.00;;;14.71;100.00
78845;BME280;68195;50.854;2.860;2023-07-30T03:32:58;100879.94;;;14.26;100.00
78845;BME280;68195;50.854;2.860;2023-07-30T03:35:26;100928.78;;;14.57;100.00
78845;BME280;68195;50.854;2.860;2023-07-30T03:37:53;101003.94;;;14.89;100.00
78845;BME280;68195;50.854;2.860;2023-07-30T03:40:19;100995.16;;;14.75;100.00
78845;BME280;68195;50.854;2.860;2023-07-30T03:42:47;100962.78;;;14.61;100.00
78845;BME280;68195;50.854;2.860;2023-07-30T03:45:15;101001.69;;;14.83;100.00
78845;BME280;68195;50.854;2.860;2023-07-30T03:47:40;100997.38;;;14.82;100.00
78845;BME280;68195;50.854;2.860;2023-07-30T03:50:06;100989.31;;;14.70;100.00
78845;BME280;68195;50.854;2.860;2023-07-30T03:52:31;100946.69;;;14.51;100.00
78845;BME280;68195;50.854;2.860;2023-07-30T03:54:57;100972.34;;;14.62;100.00
78845;BME280;68195;50.854;2.860;2023-07-30T03:57:22;100965.31;;;14.62;100.00
78845;BME280;68195;50.854;2.860;2023-07-30T03:59:47;101023.16;;;15.04;100.00
78845;BME280;68195;50.854;2.860;2023-07-30T04:02:13;100980.88;;;14.80;100.00
78845;BME280;68195;50.854;2.860;2023-07-30T04:04:41;100966.16;;;14.63;100.00
78845;BME280;68195;50.854;2.860;2023-07-30T04:07:08;101049.06;;;15.10;100.00
78845;BME280;68195;50.854;2.860;2023-07-30T04:09:36;100992.81;;;14.71;100.00
78845;BME280;68195;50.854;2.860;2023-07-30T04:12:04;100960.72;;;14.51;100.00
78845;BME280;68195;50.854;2.860;2023-07-30T04:14:30;100916.66;;;14.13;100.00
78845;BME280;68195;50.854;2.860;2023-07-30T04:16:57;101013.34;;;14.79;100.00
78845;BME280;68195;50.854;2.860;2023-07-30T04:19:25;100955.72;;;14.47;100.00
78845;BME280;68195;50.854;2.860;2023-07-30T04:21:50;101024.97;;;14.89;100.00
78845;BME280;68195;50.854;2.860;2023-07-30T04:24:18;101008.09;;;14.79;100.00
78845;BME280;68195;50.854;2.860;2023-07-30T04:26:46;101004.31;;;14.83;100.00
78845;BME280;68195;50.854;2.860;2023-07-30T04:29:11;101031.22;;;15.01;100.00
78845;BME280;68195;50.854;2.860;2023-07-30T04:31:39;100988.97;;;14.62;100.00
78845;BME280;68195;50.854;2.860;2023-07-30T04:34:06;100966.81;;;14.52;100.00
78845;BME280;68195;50.854;2.860;2023-07-30T04:36:34;100915.03;;;14.25;100.00
78845;BME280;68195;50.854;2.860;2023-07-30T04:39:00;100885.97;;;14.14;100.00
78845;BME280;68195;50.854;2.860;2023-07-30T04:41:30;100936.41;;;14.48;100.00
78845;BME280;68195;50.854;2.860;2023-07-30T04:43:56;101005.03;;;14.99;100.00
78845;BME280;68195;50.854;2.860;2023-07-30T04:46:23;101026.63;;;15.04;100.00
78845;BME280;68195;50.854;2.860;2023-07-30T04:48:50;101015.19;;;14.91;100.00
78845;BME280;68195;50.854;2.860;2023-07-30T04:51:16;101013.50;;;14.90;100.00
78845;BME280;68195;50.854;2.860;2023-07-30T04:53:44;100974.13;;;14.61;100.00
78845;BME280;68195;50.854;2.860;2023-07-30T04:56:11;100977.31;;;14.66;100.00
78845;BME280;68195;50.854;2.860;2023-07-30T04:58:39;101009.94;;;14.91;100.00
78845;BME280;68195;50.854;2.860;2023-07-30T05:01:05;100990.63;;;14.77;100.00
78845;BME280;68195;50.854;2.860;2023-07-30T05:03:30;101004.53;;;14.80;100.00
78845;BME280;68195;50.854;2.860;2023-07-30T05:05:58;101031.72;;;14.93;100.00
78845;BME280;68195;50.854;2.860;2023-07-30T05:08:26;100964.56;;;14.60;100.00
78845;BME280;68195;50.854;2.860;2023-07-30T05:10:53;100942.31;;;14.51;100.00
78845;BME280;68195;50.854;2.860;2023-07-30T05:13:21;101062.22;;;15.37;100.00
78845;BME280;68195;50.854;2.860;2023-07-30T05:15:47;100987.19;;;14.90;100.00
78845;BME280;68195;50.854;2.860;2023-07-30T05:18:12;100971.81;;;14.84;100.00
78845;BME280;68195;50.854;2.860;2023-07-30T05:20:40;100991.72;;;14.88;100.00
78845;BME280;68195;50.854;2.860;2023-07-30T05:23:05;101067.28;;;15.40;100.00
78845;BME280;68195;50.854;2.860;2023-07-30T05:25:33;100954.31;;;14.70;100.00
78845;BME280;68195;50.854;2.860;2023-07-30T05:28:00;101088.03;;;15.45;100.00
78845;BME280;68195;50.854;2.860;2023-07-30T05:30:26;101030.97;;;15.18;100.00
78845;BME280;68195;50.854;2.860;2023-07-30T05:32:53;101078.88;;;15.50;100.00
78845;BME280;68195;50.854;2.860;2023-07-30T05:35:19;101035.09;;;15.22;100.00
78845;BME280;68195;50.854;2.860;2023-07-30T05:37:44;101028.78;;;15.25;100.00
78845;BME280;68195;50.854;2.860;2023-07-30T05:40:10;100954.28;;;14.84;100.00
78845;BME280;68195;50.854;2.860;2023-07-30T05:42:38;100960.06;;;14.89;100.00
78845;BME280;68195;50.854;2.860;2023-07-30T05:45:03;101007.22;;;15.20;100.00
78845;BME280;68195;50.854;2.860;2023-07-30T05:47:29;100952.19;;;14.89;100.00
78845;BME280;68195;50.854;2.860;2023-07-30T05:49:57;100986.47;;;15.15;100.00
78845;BME280;68195;50.854;2.860;2023-07-30T05:52:23;101053.66;;;15.61;100.00
78845;BME280;68195;50.854;2.860;2023-07-30T05:54:48;101011.13;;;15.27;100.00
78845;BME280;68195;50.854;2.860;2023-07-30T05:57:16;101069.16;;;15.65;100.00
78845;BME280;68195;50.854;2.860;2023-07-30T05:59:43;100998.22;;;15.09;100.00
78845;BME280;68195;50.854;2.860;2023-07-30T06:02:09;101041.28;;;15.48;100.00
78845;BME280;68195;50.854;2.860;2023-07-30T06:04:34;100972.34;;;15.03;100.00
78845;BME280;68195;50.854;2.860;2023-07-30T06:07:00;101012.41;;;15.34;100.00
78845;BME280;68195;50.854;2.860;2023-07-30T06:09:26;101023.88;;;15.33;100.00
78845;BME280;68195;50.854;2.860;2023-07-30T06:11:51;100965.91;;;15.07;100.00
78845;BME280;68195;50.854;2.860;2023-07-30T06:14:17;100903.53;;;14.69;100.00
78845;BME280;68195;50.854;2.860;2023-07-30T06:16:42;100993.66;;;15.26;100.00
78845;BME280;68195;50.854;2.860;2023-07-30T06:19:12;101019.72;;;15.43;100.00
78845;BME280;68195;50.854;2.860;2023-07-30T06:21:38;100997.56;;;15.33;100.00
78845;BME280;68195;50.854;2.860;2023-07-30T06:24:05;100985.97;;;15.23;100.00
78845;BME280;68195;50.854;2.860;2023-07-30T06:26:31;101107.94;;;16.03;100.00
78845;BME280;68195;50.854;2.860;2023-07-30T06:29:01;100978.91;;;15.23;100.00
78845;BME280;68195;50.854;2.860;2023-07-30T06:31:27;100979.19;;;15.46;100.00
78845;BME280;68195;50.854;2.860;2023-07-30T06:33:52;100957.25;;;15.32;100.00
78845;BME280;68195;50.854;2.860;2023-07-30T06:36:17;101008.25;;;15.57;100.00
78845;BME280;68195;50.854;2.860;2023-07-30T06:38:43;100941.69;;;15.29;100.00
78845;BME280;68195;50.854;2.860;2023-07-30T06:41:08;101053.34;;;15.92;100.00
78845;BME280;68195;50.854;2.860;2023-07-30T06:43:34;100952.94;;;15.31;100.00
78845;BME280;68195;50.854;2.860;2023-07-30T06:45:59;101019.88;;;15.67;100.00
78845;BME280;68195;50.854;2.860;2023-07-30T06:48:25;101078.41;;;15.98;100.00
78845;BME280;68195;50.854;2.860;2023-07-30T06:50:51;101039.94;;;15.83;100.00
78845;BME280;68195;50.854;2.860;2023-07-30T06:53:16;101018.59;;;15.60;100.00
78845;BME280;68195;50.854;2.860;2023-07-30T06:55:41;101044.88;;;15.87;100.00
78845;BME280;68195;50.854;2.860;2023-07-30T06:58:07;101065.53;;;15.93;100.00
78845;BME280;68195;50.854;2.860;2023-07-30T07:00:35;101067.34;;;16.06;100.00
78845;BME280;68195;50.854;2.860;2023-07-30T07:03:00;101135.28;;;16.40;100.00
78845;BME280;68195;50.854;2.860;2023-07-30T07:05:25;101053.84;;;15.85;100.00
78845;BME280;68195;50.854;2.860;2023-07-30T07:07:53;101039.81;;;15.71;100.00
78845;BME280;68195;50.854;2.860;2023-07-30T07:10:19;101103.00;;;16.24;100.00
78845;BME280;68195;50.854;2.860;2023-07-30T07:12:44;101114.50;;;16.23;100.00
78845;BME280;68195;50.854;2.860;2023-07-30T07:15:09;101032.84;;;15.70;100.00
78845;BME280;68195;50.854;2.860;2023-07-30T07:17:35;101054.59;;;15.87;100.00
78845;BME280;68195;50.854;2.860;2023-07-30T07:20:08;101142.44;;;16.38;100.00
78845;BME280;68195;50.854;2.860;2023-07-30T07:22:34;101102.03;;;16.12;100.00
78845;BME280;68195;50.854;2.860;2023-07-30T07:24:59;101103.84;;;16.12;100.00
78845;BME280;68195;50.854;2.860;2023-07-30T07:27:27;101068.81;;;15.97;100.00
78845;BME280;68195;50.854;2.860;2023-07-30T07:29:57;101090.13;;;15.94;100.00
78845;BME280;68195;50.854;2.860;2023-07-30T07:32:25;101126.00;;;16.35;100.00
78845;BME280;68195;50.854;2.860;2023-07-30T07:34:52;101048.78;;;15.82;100.00
78845;BME280;68195;50.854;2.860;2023-07-30T07:37:18;101016.78;;;15.61;100.00
78845;BME280;68195;50.854;2.860;2023-07-30T07:39:46;101142.34;;;16.40;100.00
78845;BME280;68195;50.854;2.860;2023-07-30T07:42:14;101174.72;;;16.55;100.00
78845;BME280;68195;50.854;2.860;2023-07-30T07:44:40;101128.53;;;16.49;100.00
78845;BME280;68195;50.854;2.860;2023-07-30T07:47:05;101171.91;;;16.84;100.00
78845;BME280;68195;50.854;2.860;2023-07-30T07:49:31;101144.97;;;16.78;100.00
78845;BME280;68195;50.854;2.860;2023-07-30T07:52:01;101075.47;;;16.54;100.00
78845;BME280;68195;50.854;2.860;2023-07-30T07:54:31;101025.81;;;16.48;100.00
78845;BME280;68195;50.854;2.860;2023-07-30T07:56:57;101091.94;;;16.83;100.00
78845;BME280;68195;50.854;2.860;2023-07-30T07:59:23;101133.03;;;17.11;100.00
78845;BME280;68195;50.854;2.860;2023-07-30T08:01:49;101171.00;;;17.34;100.00
78845;BME280;68195;50.854;2.860;2023-07-30T08:04:14;101076.31;;;16.80;100.00
78845;BME280;68195;50.854;2.860;2023-07-30T08:06:44;101142.81;;;17.22;100.00
78845;BME280;68195;50.854;2.860;2023-07-30T08:09:10;101190.38;;;17.46;100.00
78845;BME280;68195;50.854;2.860;2023-07-30T08:11:37;101098.34;;;16.92;100.00
78845;BME280;68195;50.854;2.860;2023-07-30T08:14:08;101075.34;;;16.94;100.00
78845;BME280;68195;50.854;2.860;2023-07-30T08:16:33;101121.28;;;17.28;100.00
78845;BME280;68195;50.854;2.860;2023-07-30T08:19:01;101162.75;;;17.63;100.00
78845;BME280;68195;50.854;2.860;2023-07-30T08:21:29;101126.38;;;17.67;100.00
78845;BME280;68195;50.854;2.860;2023-07-30T08:23:57;101148.31;;;18.04;100.00
78845;BME280;68195;50.854;2.860;2023-07-30T08:26:22;101071.31;;;17.73;100.00
78845;BME280;68195;50.854;2.860;2023-07-30T08:28:50;101142.25;;;18.26;100.00
78845;BME280;68195;50.854;2.860;2023-07-30T08:31:15;101034.28;;;17.86;100.00
78845;BME280;68195;50.854;2.860;2023-07-30T08:33:41;101100.66;;;18.39;100.00
78845;BME280;68195;50.854;2.860;2023-07-30T08:36:08;101140.72;;;18.57;100.00
78845;BME280;68195;50.854;2.860;2023-07-30T08:38:34;101132.31;;;18.52;97.80
78845;BME280;68195;50.854;2.860;2023-07-30T08:41:02;101070.97;;;18.13;95.09
78845;BME280;68195;50.854;2.860;2023-07-30T08:43:32;101103.75;;;18.11;94.54
78845;BME280;68195;50.854;2.860;2023-07-30T08:45:57;101172.41;;;18.81;93.82
78845;BME280;68195;50.854;2.860;2023-07-30T08:48:24;101167.13;;;18.93;92.03
78845;BME280;68195;50.854;2.860;2023-07-30T08:50:56;101129.81;;;18.84;92.38
78845;BME280;68195;50.854;2.860;2023-07-30T08:53:24;101156.25;;;19.30;90.12
78845;BME280;68195;50.854;2.860;2023-07-30T08:55:52;101143.03;;;19.30;88.86
78845;BME280;68195;50.854;2.860;2023-07-30T08:58:17;101160.13;;;19.69;86.88
78845;BME280;68195;50.854;2.860;2023-07-30T09:00:45;101060.03;;;19.08;84.32
78845;BME280;68195;50.854;2.860;2023-07-30T09:03:14;101039.59;;;18.99;82.98
78845;BME280;68195;50.854;2.860;2023-07-30T09:05:42;101019.53;;;18.96;81.18
78845;BME280;68195;50.854;2.860;2023-07-30T09:08:08;101018.94;;;18.81;82.57
78845;BME280;68195;50.854;2.860;2023-07-30T09:10:35;101083.09;;;19.17;81.87
78845;BME280;68195;50.854;2.860;2023-07-30T09:13:01;101172.06;;;19.75;83.11
78845;BME280;68195;50.854;2.860;2023-07-30T09:15:34;101080.06;;;19.22;83.32
78845;BME280;68195;50.854;2.860;2023-07-30T09:18:06;101097.72;;;19.44;82.86
78845;BME280;68195;50.854;2.860;2023-07-30T09:20:38;101131.56;;;19.84;82.67
78845;BME280;68195;50.854;2.860;2023-07-30T09:23:05;101184.16;;;20.21;81.04
78845;BME280;68195;50.854;2.860;2023-07-30T09:25:33;101119.28;;;19.83;79.52
78845;BME280;68195;50.854;2.860;2023-07-30T09:27:58;101186.03;;;20.30;78.71
78845;BME280;68195;50.854;2.860;2023-07-30T09:30:25;101170.00;;;20.11;79.47
78845;BME280;68195;50.854;2.860;2023-07-30T09:32:52;101121.25;;;19.58;78.51
78845;BME280;68195;50.854;2.860;2023-07-30T09:35:22;101200.59;;;20.15;80.11
78845;BME280;68195;50.854;2.860;2023-07-30T09:37:50;101202.22;;;20.27;79.78
78845;BME280;68195;50.854;2.860;2023-07-30T09:40:18;101124.28;;;19.54;80.49
78845;BME280;68195;50.854;2.860;2023-07-30T09:42:46;101089.19;;;19.40;79.51
78845;BME280;68195;50.854;2.860;2023-07-30T09:45:21;101170.81;;;19.90;80.13
78845;BME280;68195;50.854;2.860;2023-07-30T09:47:57;101044.09;;;19.52;79.09
78845;BME280;68195;50.854;2.860;2023-07-30T09:50:22;101214.22;;;20.63;77.38
78845;BME280;68195;50.854;2.860;2023-07-30T09:52:48;101121.50;;;20.20;78.01
78845;BME280;68195;50.854;2.860;2023-07-30T09:55:15;101142.44;;;20.44;75.98
78845;BME280;68195;50.854;2.860;2023-07-30T09:57:46;101164.72;;;20.74;74.75
78845;BME280;68195;50.854;2.860;2023-07-30T10:00:17;101206.53;;;21.22;74.58
78845;BME280;68195;50.854;2.860;2023-07-30T10:02:48;101219.25;;;21.18;73.32
78845;BME280;68195;50.854;2.860;2023-07-30T10:05:14;101212.03;;;21.30;72.36
78845;BME280;68195;50.854;2.860;2023-07-30T10:07:44;101218.88;;;21.33;71.17
78845;BME280;68195;50.854;2.860;2023-07-30T10:10:12;101189.94;;;21.29;71.99
78845;BME280;68195;50.854;2.860;2023-07-30T10:12:42;101190.50;;;21.33;71.89
78845;BME280;68195;50.854;2.860;2023-07-30T10:15:09;101186.00;;;21.34;70.78
78845;BME280;68195;50.854;2.860;2023-07-30T10:17:34;101148.19;;;21.01;71.50
78845;BME280;68195;50.854;2.860;2023-07-30T10:20:25;101230.47;;;21.31;70.43
78845;BME280;68195;50.854;2.860;2023-07-30T10:22:56;101228.53;;;21.34;70.93
78845;BME280;68195;50.854;2.860;2023-07-30T10:25:27;101164.28;;;21.09;71.39
78845;BME280;68195;50.854;2.860;2023-07-30T10:27:55;101203.13;;;21.41;71.19
78845;BME280;68195;50.854;2.860;2023-07-30T10:30:29;101180.97;;;21.30;70.73
78845;BME280;68195;50.854;2.860;2023-07-30T10:38:15;101147.63;;;20.97;70.56
78845;BME280;68195;50.854;2.860;2023-07-30T10:40:41;101234.09;;;21.52;71.02
78845;BME280;68195;50.854;2.860;2023-07-30T10:43:21;101175.31;;;21.14;71.17
78845;BME280;68195;50.854;2.860;2023-07-30T10:45:50;101212.88;;;21.40;71.81
78845;BME280;68195;50.854;2.860;2023-07-30T10:48:17;101250.31;;;21.58;70.16
78845;BME280;68195;50.854;2.860;2023-07-30T10:50:43;101146.22;;;21.03;68.97
78845;BME280;68195;50.854;2.860;2023-07-30T10:53:14;101246.66;;;21.49;68.64
78845;BME280;68195;50.854;2.860;2023-07-30T10:55:43;101200.16;;;21.34;68.84
78845;BME280;68195;50.854;2.860;2023-07-30T10:58:10;101239.84;;;21.66;69.57
78845;BME280;68195;50.854;2.860;2023-07-30T11:00:38;101215.19;;;21.55;69.73
78845;BME280;68195;50.854;2.860;2023-07-30T11:03:03;101210.19;;;21.71;68.75
78845;BME280;68195;50.854;2.860;2023-07-30T11:05:28;101229.66;;;21.81;67.38
78845;BME280;68195;50.854;2.860;2023-07-30T11:07:55;101177.44;;;21.61;68.27
78845;BME280;68195;50.854;2.860;2023-07-30T11:10:21;101222.63;;;21.70;68.65
78845;BME280;68195;50.854;2.860;2023-07-30T11:12:49;101152.88;;;21.38;68.92
78845;BME280;68195;50.854;2.860;2023-07-30T11:15:16;101179.69;;;21.56;66.53
78845;BME280;68195;50.854;2.860;2023-07-30T11:17:42;101173.13;;;21.29;67.26
78845;BME280;68195;50.854;2.860;2023-07-30T11:20:22;101257.38;;;21.98;67.97
78845;BME280;68195;50.854;2.860;2023-07-30T11:22:48;101240.31;;;21.91;67.97
78845;BME280;68195;50.854;2.860;2023-07-30T11:25:17;101265.25;;;22.09;67.09
78845;BME280;68195;50.854;2.860;2023-07-30T11:27:50;101206.84;;;21.79;66.73
78845;BME280;68195;50.854;2.860;2023-07-30T11:30:16;101261.56;;;22.01;67.32
78845;BME280;68195;50.854;2.860;2023-07-30T11:32:42;101210.75;;;21.75;66.68
78845;BME280;68195;50.854;2.860;2023-07-30T11:35:11;101264.25;;;22.10;65.79
78845;BME280;68195;50.854;2.860;2023-07-30T11:37:42;101245.91;;;22.17;65.86
78845;BME280;68195;50.854;2.860;2023-07-30T11:40:11;101209.94;;;21.94;66.12
78845;BME280;68195;50.854;2.860;2023-07-30T11:42:38;101252.66;;;22.31;66.41
78845;BME280;68195;50.854;2.860;2023-07-30T11:45:21;101160.94;;;21.77;65.19
78845;BME280;68195;50.854;2.860;2023-07-30T11:47:50;101235.41;;;22.16;64.42
78845;BME280;68195;50.854;2.860;2023-07-30T11:50:16;101191.03;;;22.06;63.77
78845;BME280;68195;50.854;2.860;2023-07-30T11:52:56;101259.53;;;22.34;64.44
78845;BME280;68195;50.854;2.860;2023-07-30T11:55:22;101230.97;;;22.16;64.02
78845;BME280;68195;50.854;2.860;2023-07-30T11:57:49;101240.72;;;21.96;63.69
78845;BME280;68195;50.854;2.860;2023-07-30T12:00:15;101187.81;;;21.74;64.87
78845;BME280;68195;50.854;2.860;2023-07-30T12:02:41;101169.91;;;21.85;65.47
78845;BME280;68195;50.854;2.860;2023-07-30T12:05:12;101206.88;;;21.88;65.44
78845;BME280;68195;50.854;2.860;2023-07-30T12:07:40;101175.63;;;21.61;65.28
78845;BME280;68195;50.854;2.860;2023-07-30T12:10:11;101264.31;;;22.30;66.85
78845;BME280;68195;50.854;2.860;2023-07-30T12:12:43;101281.06;;;22.21;65.67
78845;BME280;68195;50.854;2.860;2023-07-30T12:15:14;101240.16;;;22.02;66.04
78845;BME280;68195;50.854;2.860;2023-07-30T12:17:40;101218.88;;;21.83;65.98
78845;BME280;68195;50.854;2.860;2023-07-30T12:20:08;101168.59;;;21.50;66.48
78845;BME280;68195;50.854;2.860;2023-07-30T12:22:34;101274.34;;;22.17;66.54
78845;BME280;68195;50.854;2.860;2023-07-30T12:25:04;101232.47;;;21.89;66.90
78845;BME280;68195;50.854;2.860;2023-07-30T12:27:32;101268.31;;;21.95;67.37
78845;BME280;68195;50.854;2.860;2023-07-30T12:29:57;101163.63;;;21.26;67.78
78845;BME280;68195;50.854;2.860;2023-07-30T12:32:23;101195.72;;;21.44;67.85
78845;BME280;68195;50.854;2.860;2023-07-30T12:34:49;101154.91;;;21.05;68.26
78845;BME280;68195;50.854;2.860;2023-07-30T12:37:15;101297.28;;;21.88;68.46
78845;BME280;68195;50.854;2.860;2023-07-30T12:39:42;101249.25;;;21.40;67.49
78845;BME280;68195;50.854;2.860;2023-07-30T12:42:08;101253.94;;;21.47;67.88
78845;BME280;68195;50.854;2.860;2023-07-30T12:44:33;101229.88;;;21.18;68.40
78845;BME280;68195;50.854;2.860;2023-07-30T12:46:58;101275.09;;;21.38;69.01
78845;BME280;68195;50.854;2.860;2023-07-30T12:49:26;101203.94;;;21.01;69.23